sensor_id;sensor_type;location;lat;lon;timestamp;P1;durP1;ratioP1;P2;durP2;ratioP2
39276;SDS011;24981;48.086;-1.686;2022-07-23T00:00:13;11.68;;;4.65;;
39276;SDS011;24981;48.086;-1.686;2022-07-23T00:02:41;11.05;;;4.30;;
39276;SDS011;24981;48.086;-1.686;2022-07-23T00:05:08;9.95;;;3.50;;
39276;SDS011;24981;48.086;-1.686;2022-07-23T00:07:36;7.15;;;3.35;;
39276;SDS011;24981;48.086;-1.686;2022-07-23T00:10:05;13.77;;;4.18;;
39276;SDS011;24981;48.086;-1.686;2022-07-23T00:12:33;11.07;;;3.65;;
39276;SDS011;24981;48.086;-1.686;2022-07-23T00:15:01;12.05;;;4.75;;
39276;SDS011;24981;48.086;-1.686;2022-07-23T00:17:28;14.18;;;4.38;;
39276;SDS011;24981;48.086;-1.686;2022-07-23T00:19:55;11.13;;;4.05;;
39276;SDS011;24981;48.086;-1.686;2022-07-23T00:22:23;9.35;;;3.75;;
39276;SDS011;24981;48.086;-1.686;2022-07-23T00:24:50;8.88;;;3.63;;
39276;SDS011;24981;48.086;-1.686;2022-07-23T00:27:19;14.32;;;4.47;;
39276;SDS011;24981;48.086;-1.686;2022-07-23T00:29:46;9.45;;;3.80;;
39276;SDS011;24981;48.086;-1.686;2022-07-23T00:32:13;10.35;;;4.20;;
39276;SDS011;24981;48.086;-1.686;2022-07-23T00:34:41;13.25;;;4.10;;
39276;SDS011;24981;48.086;-1.686;2022-07-23T00:37:08;9.35;;;3.58;;
39276;SDS011;24981;48.086;-1.686;2022-07-23T00:39:35;13.90;;;4.90;;
39276;SDS011;24981;48.086;-1.686;2022-07-23T00:42:03;14.07;;;4.20;;
39276;SDS011;24981;48.086;-1.686;2022-07-23T00:44:31;11.77;;;4.40;;
39276;SDS011;24981;48.086;-1.686;2022-07-23T00:46:59;9.68;;;4.35;;
39276;SDS011;24981;48.086;-1.686;2022-07-23T00:49:27;7.43;;;4.32;;
39276;SDS011;24981;48.086;-1.686;2022-07-23T00:51:56;9.73;;;4.35;;
39276;SDS011;24981;48.086;-1.686;2022-07-23T00:54:24;8.43;;;4.07;;
39276;SDS011;24981;48.086;-1.686;2022-07-23T00:56:53;10.88;;;4.63;;
39276;SDS011;24981;48.086;-1.686;2022-07-23T00:59:20;14.38;;;4.95;;
39276;SDS011;24981;48.086;-1.686;2022-07-23T01:01:49;12.98;;;4.35;;
39276;SDS011;24981;48.086;-1.686;2022-07-23T01:04:16;15.43;;;4.28;;
39276;SDS011;24981;48.086;-1.686;2022-07-23T01:06:45;12.68;;;4.43;;
39276;SDS011;24981;48.086;-1.686;2022-07-23T01:09:12;8.15;;;4.53;;
39276;SDS011;24981;48.086;-1.686;2022-07-23T01:11:40;9.32;;;4.05;;
39276;SDS011;24981;48.086;-1.686;2022-07-23T01:14:12;14.80;;;4.53;;
39276;SDS011;24981;48.086;-1.686;2022-07-23T01:16:40;9.00;;;4.05;;
39276;SDS011;24981;48.086;-1.686;2022-07-23T01:19:09;10.57;;;4.80;;
39276;SDS011;24981;48.086;-1.686;2022-07-23T01:21:37;6.85;;;3.92;;
39276;SDS011;24981;48.086;-1.686;2022-07-23T01:24:07;10.52;;;4.07;;
39276;SDS011;24981;48.086;-1.686;2022-07-23T01:26:35;15.18;;;4.13;;
39276;SDS011;24981;48.086;-1.686;2022-07-23T01:29:03;12.25;;;4.32;;
39276;SDS011;24981;48.086;-1.686;2022-07-23T01:31:31;9.82;;;4.20;;
39276;SDS011;24981;48.086;-1.686;2022-07-23T01:33:58;8.85;;;4.78;;
39276;SDS011;24981;48.086;-1.686;2022-07-23T01:36:26;12.25;;;4.63;;
39276;SDS011;24981;48.086;-1.686;2022-07-23T01:38:53;16.30;;;6.35;;
39276;SDS011;24981;48.086;-1.686;2022-07-23T01:41:22;8.13;;;4.47;;
39276;SDS011;24981;48.086;-1.686;2022-07-23T01:43:49;14.00;;;4.82;;
39276;SDS011;24981;48.086;-1.686;2022-07-23T01:46:17;12.23;;;4.47;;
39276;SDS011;24981;48.086;-1.686;2022-07-23T01:48:44;8.40;;;4.80;;
39276;SDS011;24981;48.086;-1.686;2022-07-23T01:51:11;12.98;;;5.00;;
39276;SDS011;24981;48.086;-1.686;2022-07-23T01:53:39;10.55;;;5.15;;
39276;SDS011;24981;48.086;-1.686;2022-07-23T01:56:06;12.43;;;5.20;;
39276;SDS011;24981;48.086;-1.686;2022-07-23T01:58:35;11.60;;;4.47;;
39276;SDS011;24981;48.086;-1.686;2022-07-23T02:01:02;9.43;;;5.35;;
39276;SDS011;24981;48.086;-1.686;2022-07-23T02:03:30;8.18;;;4.90;;
39276;SDS011;24981;48.086;-1.686;2022-07-23T02:05:57;7.45;;;4.78;;
39276;SDS011;24981;48.086;-1.686;2022-07-23T02:08:24;14.23;;;5.03;;
39276;SDS011;24981;48.086;-1.686;2022-07-23T02:10:51;9.48;;;4.82;;
39276;SDS011;24981;48.086;-1.686;2022-07-23T02:13:19;8.45;;;4.38;;
39276;SDS011;24981;48.086;-1.686;2022-07-23T02:15:47;7.93;;;5.47;;
39276;SDS011;24981;48.086;-1.686;2022-07-23T02:18:15;10.63;;;4.70;;
39276;SDS011;24981;48.086;-1.686;2022-07-23T02:20:42;10.15;;;5.13;;
39276;SDS011;24981;48.086;-1.686;2022-07-23T02:23:10;12.68;;;5.10;;
39276;SDS011;24981;48.086;-1.686;2022-07-23T02:25:37;9.27;;;4.45;;
39276;SDS011;24981;48.086;-1.686;2022-07-23T02:28:05;11.02;;;5.38;;
39276;SDS011;24981;48.086;-1.686;2022-07-23T02:30:32;14.50;;;5.07;;
39276;SDS011;24981;48.086;-1.686;2022-07-23T02:33:01;10.18;;;6.00;;
39276;SDS011;24981;48.086;-1.686;2022-07-23T02:35:28;12.65;;;5.47;;
39276;SDS011;24981;48.086;-1.686;2022-07-23T02:37:55;8.32;;;5.30;;
39276;SDS011;24981;48.086;-1.686;2022-07-23T02:40:22;9.35;;;5.07;;
39276;SDS011;24981;48.086;-1.686;2022-07-23T02:42:50;16.63;;;5.63;;
39276;SDS011;24981;48.086;-1.686;2022-07-23T02:45:17;12.15;;;5.45;;
39276;SDS011;24981;48.086;-1.686;2022-07-23T02:47:44;16.50;;;6.03;;
39276;SDS011;24981;48.086;-1.686;2022-07-23T02:50:13;16.02;;;5.43;;
39276;SDS011;24981;48.086;-1.686;2022-07-23T02:52:40;8.38;;;5.18;;
39276;SDS011;24981;48.086;-1.686;2022-07-23T02:55:08;13.13;;;5.35;;
39276;SDS011;24981;48.086;-1.686;2022-07-23T02:57:36;16.35;;;6.63;;
39276;SDS011;24981;48.086;-1.686;2022-07-23T03:00:04;11.70;;;5.50;;
39276;SDS011;24981;48.086;-1.686;2022-07-23T03:02:32;10.57;;;5.75;;
39276;SDS011;24981;48.086;-1.686;2022-07-23T03:05:00;12.27;;;5.30;;
39276;SDS011;24981;48.086;-1.686;2022-07-23T03:07:28;10.75;;;6.00;;
39276;SDS011;24981;48.086;-1.686;2022-07-23T03:09:56;12.85;;;5.90;;
39276;SDS011;24981;48.086;-1.686;2022-07-23T03:12:23;11.32;;;5.30;;
39276;SDS011;24981;48.086;-1.686;2022-07-23T03:14:50;11.50;;;5.50;;
39276;SDS011;24981;48.086;-1.686;2022-07-23T03:17:18;17.40;;;5.80;;
39276;SDS011;24981;48.086;-1.686;2022-07-23T03:19:45;19.60;;;5.80;;
39276;SDS011;24981;48.086;-1.686;2022-07-23T03:22:12;15.00;;;6.25;;
39276;SDS011;24981;48.086;-1.686;2022-07-23T03:24:41;12.40;;;5.78;;
39276;SDS011;24981;48.086;-1.686;2022-07-23T03:27:23;14.48;;;5.55;;
39276;SDS011;24981;48.086;-1.686;2022-07-23T03:29:51;8.18;;;5.45;;
39276;SDS011;24981;48.086;-1.686;2022-07-23T03:32:19;16.38;;;5.25;;
39276;SDS011;24981;48.086;-1.686;2022-07-23T03:34:47;10.25;;;4.35;;
39276;SDS011;24981;48.086;-1.686;2022-07-23T03:37:15;15.95;;;5.40;;
39276;SDS011;24981;48.086;-1.686;2022-07-23T03:39:44;9.43;;;5.55;;
39276;SDS011;24981;48.086;-1.686;2022-07-23T03:42:12;9.88;;;6.15;;
39276;SDS011;24981;48.086;-1.686;2022-07-23T03:44:39;14.80;;;5.88;;
39276;SDS011;24981;48.086;-1.686;2022-07-23T03:47:06;15.13;;;5.70;;
39276;SDS011;24981;48.086;-1.686;2022-07-23T03:49:34;14.18;;;5.75;;
39276;SDS011;24981;48.086;-1.686;2022-07-23T03:52:01;12.13;;;5.53;;
39276;SDS011;24981;48.086;-1.686;2022-07-23T03:54:29;10.65;;;6.00;;
39276;SDS011;24981;48.086;-1.686;2022-07-23T03:56:57;10.90;;;6.20;;
39276;SDS011;24981;48.086;-1.686;2022-07-23T03:59:25;10.80;;;6.03;;
39276;SDS011;24981;48.086;-1.686;2022-07-23T04:01:52;13.63;;;5.70;;
39276;SDS011;24981;48.086;-1.686;2022-07-23T04:04:20;16.15;;;6.47;;
39276;SDS011;24981;48.086;-1.686;2022-07-23T04:06:47;15.30;;;6.45;;
39276;SDS011;24981;48.086;-1.686;2022-07-23T04:09:14;12.63;;;6.25;;
39276;SDS011;24981;48.086;-1.686;2022-07-23T04:11:41;14.23;;;5.20;;
39276;SDS011;24981;48.086;-1.686;2022-07-23T04:14:10;15.88;;;6.78;;
39276;SDS011;24981;48.086;-1.686;2022-07-23T04:16:37;17.48;;;6.43;;
39276;SDS011;24981;48.086;-1.686;2022-07-23T04:19:05;18.38;;;6.80;;
39276;SDS011;24981;48.086;-1.686;2022-07-23T04:21:32;12.48;;;6.45;;
39276;SDS011;24981;48.086;-1.686;2022-07-23T04:23:59;16.45;;;7.07;;
39276;SDS011;24981;48.086;-1.686;2022-07-23T04:26:27;16.67;;;6.75;;
39276;SDS011;24981;48.086;-1.686;2022-07-23T04:28:54;12.50;;;6.70;;
39276;SDS011;24981;48.086;-1.686;2022-07-23T04:31:23;13.63;;;7.13;;
39276;SDS011;24981;48.086;-1.686;2022-07-23T04:33:50;12.48;;;7.03;;
39276;SDS011;24981;48.086;-1.686;2022-07-23T04:36:17;14.05;;;6.60;;
39276;SDS011;24981;48.086;-1.686;2022-07-23T04:38:45;13.23;;;6.90;;
39276;SDS011;24981;48.086;-1.686;2022-07-23T04:41:12;16.75;;;7.03;;
39276;SDS011;24981;48.086;-1.686;2022-07-23T04:43:39;15.95;;;6.75;;
39276;SDS011;24981;48.086;-1.686;2022-07-23T04:46:07;16.55;;;6.22;;
39276;SDS011;24981;48.086;-1.686;2022-07-23T04:48:37;18.63;;;7.10;;
39276;SDS011;24981;48.086;-1.686;2022-07-23T04:51:04;16.05;;;6.93;;
39276;SDS011;24981;48.086;-1.686;2022-07-23T04:53:32;14.05;;;6.90;;
39276;SDS011;24981;48.086;-1.686;2022-07-23T04:56:00;10.07;;;6.45;;
39276;SDS011;24981;48.086;-1.686;2022-07-23T04:58:27;15.18;;;6.05;;
39276;SDS011;24981;48.086;-1.686;2022-07-23T05:00:54;13.82;;;7.18;;
39276;SDS011;24981;48.086;-1.686;2022-07-23T05:03:23;12.40;;;7.45;;
39276;SDS011;24981;48.086;-1.686;2022-07-23T05:05:52;14.55;;;6.47;;
39276;SDS011;24981;48.086;-1.686;2022-07-23T05:08:19;13.20;;;7.65;;
39276;SDS011;24981;48.086;-1.686;2022-07-23T05:10:46;15.32;;;7.85;;
39276;SDS011;24981;48.086;-1.686;2022-07-23T05:13:14;12.55;;;7.57;;
39276;SDS011;24981;48.086;-1.686;2022-07-23T05:15:41;16.73;;;7.43;;
39276;SDS011;24981;48.086;-1.686;2022-07-23T05:18:09;16.45;;;7.30;;
39276;SDS011;24981;48.086;-1.686;2022-07-23T05:20:36;16.38;;;7.82;;
39276;SDS011;24981;48.086;-1.686;2022-07-23T05:23:05;14.40;;;7.47;;
39276;SDS011;24981;48.086;-1.686;2022-07-23T05:25:33;13.55;;;7.80;;
39276;SDS011;24981;48.086;-1.686;2022-07-23T05:28:00;15.63;;;7.65;;
39276;SDS011;24981;48.086;-1.686;2022-07-23T05:30:27;14.07;;;7.65;;
39276;SDS011;24981;48.086;-1.686;2022-07-23T05:32:55;14.38;;;7.28;;
39276;SDS011;24981;48.086;-1.686;2022-07-23T05:35:22;13.07;;;7.78;;
39276;SDS011;24981;48.086;-1.686;2022-07-23T05:37:50;23.42;;;8.57;;
39276;SDS011;24981;48.086;-1.686;2022-07-23T05:40:20;14.85;;;8.27;;
39276;SDS011;24981;48.086;-1.686;2022-07-23T05:42:47;12.50;;;6.85;;
39276;SDS011;24981;48.086;-1.686;2022-07-23T05:45:14;16.63;;;7.97;;
39276;SDS011;24981;48.086;-1.686;2022-07-23T05:47:42;11.43;;;7.18;;
39276;SDS011;24981;48.086;-1.686;2022-07-23T05:50:11;11.55;;;7.95;;
39276;SDS011;24981;48.086;-1.686;2022-07-23T05:52:39;9.52;;;6.75;;
39276;SDS011;24981;48.086;-1.686;2022-07-23T05:55:07;18.20;;;7.38;;
39276;SDS011;24981;48.086;-1.686;2022-07-23T05:57:39;13.37;;;7.77;;
39276;SDS011;24981;48.086;-1.686;2022-07-23T06:00:07;16.33;;;7.53;;
39276;SDS011;24981;48.086;-1.686;2022-07-23T06:02:36;13.93;;;7.45;;
39276;SDS011;24981;48.086;-1.686;2022-07-23T06:05:04;14.82;;;7.65;;
39276;SDS011;24981;48.086;-1.686;2022-07-23T06:07:33;16.00;;;6.97;;
39276;SDS011;24981;48.086;-1.686;2022-07-23T06:10:01;16.80;;;7.18;;
39276;SDS011;24981;48.086;-1.686;2022-07-23T06:12:29;10.98;;;6.70;;
39276;SDS011;24981;48.086;-1.686;2022-07-23T06:14:57;14.50;;;7.18;;
39276;SDS011;24981;48.086;-1.686;2022-07-23T06:17:25;16.88;;;6.60;;
39276;SDS011;24981;48.086;-1.686;2022-07-23T06:19:53;14.57;;;6.85;;
39276;SDS011;24981;48.086;-1.686;2022-07-23T06:22:20;13.95;;;6.65;;
39276;SDS011;24981;48.086;-1.686;2022-07-23T06:24:48;12.98;;;6.55;;
39276;SDS011;24981;48.086;-1.686;2022-07-23T06:27:17;12.98;;;6.95;;
39276;SDS011;24981;48.086;-1.686;2022-07-23T06:29:44;11.88;;;6.57;;
39276;SDS011;24981;48.086;-1.686;2022-07-23T06:32:13;9.90;;;6.35;;
39276;SDS011;24981;48.086;-1.686;2022-07-23T06:34:40;16.13;;;6.65;;
39276;SDS011;24981;48.086;-1.686;2022-07-23T06:37:08;11.63;;;5.85;;
39276;SDS011;24981;48.086;-1.686;2022-07-23T06:39:35;17.80;;;6.38;;
39276;SDS011;24981;48.086;-1.686;2022-07-23T06:42:02;14.60;;;6.25;;
39276;SDS011;24981;48.086;-1.686;2022-07-23T06:44:30;14.48;;;6.63;;
39276;SDS011;24981;48.086;-1.686;2022-07-23T06:46:57;15.27;;;6.78;;
39276;SDS011;24981;48.086;-1.686;2022-07-23T06:49:26;14.57;;;5.68;;
39276;SDS011;24981;48.086;-1.686;2022-07-23T06:51:53;13.18;;;6.90;;
39276;SDS011;24981;48.086;-1.686;2022-07-23T06:54:21;11.90;;;6.00;;
39276;SDS011;24981;48.086;-1.686;2022-07-23T06:56:48;9.02;;;5.78;;
39276;SDS011;24981;48.086;-1.686;2022-07-23T06:59:15;9.13;;;6.15;;
39276;SDS011;24981;48.086;-1.686;2022-07-23T07:01:43;11.63;;;6.57;;
39276;SDS011;24981;48.086;-1.686;2022-07-23T07:04:10;13.65;;;7.10;;
39276;SDS011;24981;48.086;-1.686;2022-07-23T07:06:39;18.33;;;7.22;;
39276;SDS011;24981;48.086;-1.686;2022-07-23T07:09:06;9.65;;;6.55;;
39276;SDS011;24981;48.086;-1.686;2022-07-23T07:11:33;17.88;;;6.57;;
39276;SDS011;24981;48.086;-1.686;2022-07-23T07:14:01;11.82;;;6.63;;
39276;SDS011;24981;48.086;-1.686;2022-07-23T07:16:29;9.10;;;6.45;;
39276;SDS011;24981;48.086;-1.686;2022-07-23T07:18:57;16.10;;;6.32;;
39276;SDS011;24981;48.086;-1.686;2022-07-23T07:21:24;9.02;;;5.85;;
39276;SDS011;24981;48.086;-1.686;2022-07-23T07:23:53;18.35;;;5.97;;
39276;SDS011;24981;48.086;-1.686;2022-07-23T07:26:20;12.05;;;5.78;;
39276;SDS011;24981;48.086;-1.686;2022-07-23T07:28:47;19.38;;;5.80;;
39276;SDS011;24981;48.086;-1.686;2022-07-23T07:31:15;16.70;;;5.88;;
39276;SDS011;24981;48.086;-1.686;2022-07-23T07:33:42;16.10;;;5.88;;
39276;SDS011;24981;48.086;-1.686;2022-07-23T07:36:10;13.40;;;5.57;;
39276;SDS011;24981;48.086;-1.686;2022-07-23T07:38:37;15.35;;;5.43;;
39276;SDS011;24981;48.086;-1.686;2022-07-23T07:41:06;10.50;;;5.60;;
39276;SDS011;24981;48.086;-1.686;2022-07-23T07:43:35;10.70;;;5.40;;
39276;SDS011;24981;48.086;-1.686;2022-07-23T07:46:03;10.95;;;5.47;;
39276;SDS011;24981;48.086;-1.686;2022-07-23T07:48:30;14.20;;;4.97;;
39276;SDS011;24981;48.086;-1.686;2022-07-23T07:50:58;15.75;;;5.63;;
39276;SDS011;24981;48.086;-1.686;2022-07-23T07:53:25;10.73;;;4.90;;
39276;SDS011;24981;48.086;-1.686;2022-07-23T07:55:52;13.57;;;6.03;;
39276;SDS011;24981;48.086;-1.686;2022-07-23T07:58:21;11.40;;;5.72;;
39276;SDS011;24981;48.086;-1.686;2022-07-23T08:00:48;12.27;;;5.00;;
39276;SDS011;24981;48.086;-1.686;2022-07-23T08:03:16;6.47;;;4.28;;
39276;SDS011;24981;48.086;-1.686;2022-07-23T08:05:44;12.52;;;4.55;;
39276;SDS011;24981;48.086;-1.686;2022-07-23T08:08:11;9.18;;;5.35;;
39276;SDS011;24981;48.086;-1.686;2022-07-23T08:10:40;9.52;;;5.00;;
39276;SDS011;24981;48.086;-1.686;2022-07-23T08:13:11;16.13;;;4.95;;
39276;SDS011;24981;48.086;-1.686;2022-07-23T08:15:42;10.23;;;4.75;;
39276;SDS011;24981;48.086;-1.686;2022-07-23T08:18:10;11.10;;;5.22;;
39276;SDS011;24981;48.086;-1.686;2022-07-23T08:20:37;13.80;;;4.82;;
39276;SDS011;24981;48.086;-1.686;2022-07-23T08:23:05;12.50;;;5.03;;
39276;SDS011;24981;48.086;-1.686;2022-07-23T08:25:35;18.92;;;5.63;;
39276;SDS011;24981;48.086;-1.686;2022-07-23T08:28:05;11.63;;;5.25;;
39276;SDS011;24981;48.086;-1.686;2022-07-23T08:30:34;7.00;;;3.93;;
39276;SDS011;24981;48.086;-1.686;2022-07-23T08:33:05;9.13;;;4.25;;
39276;SDS011;24981;48.086;-1.686;2022-07-23T08:35:38;11.02;;;4.90;;
39276;SDS011;24981;48.086;-1.686;2022-07-23T08:38:08;10.02;;;4.45;;
39276;SDS011;24981;48.086;-1.686;2022-07-23T08:40:39;13.63;;;5.28;;
39276;SDS011;24981;48.086;-1.686;2022-07-23T08:43:09;12.45;;;4.60;;
39276;SDS011;24981;48.086;-1.686;2022-07-23T08:45:38;9.10;;;4.60;;
39276;SDS011;24981;48.086;-1.686;2022-07-23T08:48:10;13.07;;;5.25;;
39276;SDS011;24981;48.086;-1.686;2022-07-23T08:50:41;5.40;;;4.00;;
39276;SDS011;24981;48.086;-1.686;2022-07-23T08:53:10;9.45;;;4.45;;
39276;SDS011;24981;48.086;-1.686;2022-07-23T08:55:38;9.93;;;4.57;;
39276;SDS011;24981;48.086;-1.686;2022-07-23T08:58:05;9.00;;;4.75;;
39276;SDS011;24981;48.086;-1.686;2022-07-23T09:00:33;8.85;;;3.55;;
39276;SDS011;24981;48.086;-1.686;2022-07-23T09:03:00;5.38;;;3.42;;
39276;SDS011;24981;48.086;-1.686;2022-07-23T09:05:29;5.78;;;3.70;;
39276;SDS011;24981;48.086;-1.686;2022-07-23T09:13:23;9.73;;;3.65;;
39276;SDS011;24981;48.086;-1.686;2022-07-23T09:15:55;8.07;;;3.67;;
39276;SDS011;24981;48.086;-1.686;2022-07-23T09:21:14;8.32;;;2.92;;
39276;SDS011;24981;48.086;-1.686;2022-07-23T09:23:49;10.07;;;3.10;;
39276;SDS011;24981;48.086;-1.686;2022-07-23T09:26:22;6.53;;;2.83;;
39276;SDS011;24981;48.086;-1.686;2022-07-23T09:28:56;6.82;;;3.15;;
39276;SDS011;24981;48.086;-1.686;2022-07-23T09:31:27;10.63;;;3.13;;
39276;SDS011;24981;48.086;-1.686;2022-07-23T09:36:45;4.63;;;2.55;;
39276;SDS011;24981;48.086;-1.686;2022-07-23T09:39:14;5.80;;;2.50;;
39276;SDS011;24981;48.086;-1.686;2022-07-23T09:41:45;14.90;;;2.70;;
39276;SDS011;24981;48.086;-1.686;2022-07-23T09:44:14;8.20;;;3.00;;
39276;SDS011;24981;48.086;-1.686;2022-07-23T09:46:43;6.88;;;2.63;;
39276;SDS011;24981;48.086;-1.686;2022-07-23T09:49:14;3.25;;;2.30;;
39276;SDS011;24981;48.086;-1.686;2022-07-23T09:51:46;5.43;;;2.38;;
39276;SDS011;24981;48.086;-1.686;2022-07-23T09:57:01;5.80;;;2.60;;
39276;SDS011;24981;48.086;-1.686;2022-07-23T09:59:34;7.80;;;2.95;;
39276;SDS011;24981;48.086;-1.686;2022-07-23T10:02:04;9.25;;;2.55;;
39276;SDS011;24981;48.086;-1.686;2022-07-23T10:04:33;5.85;;;2.60;;
39276;SDS011;24981;48.086;-1.686;2022-07-23T10:07:03;5.65;;;2.85;;
39276;SDS011;24981;48.086;-1.686;2022-07-23T10:09:34;5.45;;;2.47;;
39276;SDS011;24981;48.086;-1.686;2022-07-23T10:12:03;4.47;;;2.45;;
39276;SDS011;24981;48.086;-1.686;2022-07-23T10:14:49;4.45;;;2.40;;
39276;SDS011;24981;48.086;-1.686;2022-07-23T10:17:17;4.40;;;2.10;;
39276;SDS011;24981;48.086;-1.686;2022-07-23T10:19:45;7.90;;;2.70;;
39276;SDS011;24981;48.086;-1.686;2022-07-23T10:22:14;7.43;;;2.55;;
39276;SDS011;24981;48.086;-1.686;2022-07-23T10:24:50;8.05;;;2.40;;
39276;SDS011;24981;48.086;-1.686;2022-07-23T10:27:33;4.57;;;2.30;;
39276;SDS011;24981;48.086;-1.686;2022-07-23T10:30:12;6.10;;;2.30;;
39276;SDS011;24981;48.086;-1.686;2022-07-23T10:32:49;6.97;;;2.40;;
39276;SDS011;24981;48.086;-1.686;2022-07-23T10:35:33;4.65;;;2.30;;
39276;SDS011;24981;48.086;-1.686;2022-07-23T10:38:10;9.30;;;2.45;;
39276;SDS011;24981;48.086;-1.686;2022-07-23T10:40:53;4.82;;;2.63;;
39276;SDS011;24981;48.086;-1.686;2022-07-23T10:43:22;7.25;;;2.55;;
39276;SDS011;24981;48.086;-1.686;2022-07-23T10:45:49;4.20;;;2.40;;
39276;SDS011;24981;48.086;-1.686;2022-07-23T10:48:18;7.25;;;2.75;;
39276;SDS011;24981;48.086;-1.686;2022-07-23T10:59:23;4.20;;;2.20;;
39276;SDS011;24981;48.086;-1.686;2022-07-23T11:01:51;5.93;;;2.42;;
39276;SDS011;24981;48.086;-1.686;2022-07-23T11:04:18;7.72;;;2.35;;
39276;SDS011;24981;48.086;-1.686;2022-07-23T11:09:44;5.18;;;2.63;;
39276;SDS011;24981;48.086;-1.686;2022-07-23T11:15:10;3.90;;;2.03;;
39276;SDS011;24981;48.086;-1.686;2022-07-23T11:17:40;2.80;;;1.73;;
39276;SDS011;24981;48.086;-1.686;2022-07-23T11:20:26;5.57;;;2.00;;
39276;SDS011;24981;48.086;-1.686;2022-07-23T11:22:54;6.43;;;2.63;;
39276;SDS011;24981;48.086;-1.686;2022-07-23T11:28:08;3.50;;;2.17;;
39276;SDS011;24981;48.086;-1.686;2022-07-23T11:30:39;4.90;;;2.27;;
39276;SDS011;24981;48.086;-1.686;2022-07-23T11:35:59;3.55;;;2.15;;
39276;SDS011;24981;48.086;-1.686;2022-07-23T11:38:30;6.53;;;2.00;;
39276;SDS011;24981;48.086;-1.686;2022-07-23T11:41:00;5.85;;;2.40;;
39276;SDS011;24981;48.086;-1.686;2022-07-23T11:43:27;4.50;;;1.95;;
39276;SDS011;24981;48.086;-1.686;2022-07-23T11:45:57;3.60;;;2.28;;
39276;SDS011;24981;48.086;-1.686;2022-07-23T11:48:26;3.63;;;2.10;;
39276;SDS011;24981;48.086;-1.686;2022-07-23T11:50:55;4.10;;;2.00;;
39276;SDS011;24981;48.086;-1.686;2022-07-23T11:53:23;8.75;;;3.13;;
39276;SDS011;24981;48.086;-1.686;2022-07-23T11:55:51;2.67;;;1.90;;
39276;SDS011;24981;48.086;-1.686;2022-07-23T11:58:21;8.20;;;3.60;;
39276;SDS011;24981;48.086;-1.686;2022-07-23T12:00:48;5.57;;;2.00;;
39276;SDS011;24981;48.086;-1.686;2022-07-23T12:03:18;5.30;;;1.70;;
39276;SDS011;24981;48.086;-1.686;2022-07-23T12:05:45;2.28;;;1.48;;
39276;SDS011;24981;48.086;-1.686;2022-07-23T12:08:12;4.88;;;1.75;;
39276;SDS011;24981;48.086;-1.686;2022-07-23T12:10:40;6.00;;;1.98;;
39276;SDS011;24981;48.086;-1.686;2022-07-23T12:13:09;1.67;;;1.55;;
39276;SDS011;24981;48.086;-1.686;2022-07-23T12:15:41;6.20;;;1.85;;
39276;SDS011;24981;48.086;-1.686;2022-07-23T12:18:11;4.35;;;2.15;;
39276;SDS011;24981;48.086;-1.686;2022-07-23T12:20:41;5.60;;;2.20;;
39276;SDS011;24981;48.086;-1.686;2022-07-23T12:23:11;4.90;;;1.73;;
39276;SDS011;24981;48.086;-1.686;2022-07-23T12:25:41;4.32;;;1.52;;
39276;SDS011;24981;48.086;-1.686;2022-07-23T12:28:11;3.08;;;1.70;;
39276;SDS011;24981;48.086;-1.686;2022-07-23T12:30:42;2.42;;;1.70;;
39276;SDS011;24981;48.086;-1.686;2022-07-23T12:33:11;5.70;;;1.88;;
39276;SDS011;24981;48.086;-1.686;2022-07-23T12:35:42;3.25;;;1.58;;
39276;SDS011;24981;48.086;-1.686;2022-07-23T12:38:11;7.32;;;1.80;;
39276;SDS011;24981;48.086;-1.686;2022-07-23T12:40:42;2.55;;;1.20;;
39276;SDS011;24981;48.086;-1.686;2022-07-23T12:43:17;2.05;;;1.52;;
39276;SDS011;24981;48.086;-1.686;2022-07-23T12:45:49;3.78;;;1.85;;
39276;SDS011;24981;48.086;-1.686;2022-07-23T12:48:20;3.13;;;1.65;;
39276;SDS011;24981;48.086;-1.686;2022-07-23T12:50:52;3.85;;;1.58;;
39276;SDS011;24981;48.086;-1.686;2022-07-23T12:53:23;2.92;;;1.83;;
39276;SDS011;24981;48.086;-1.686;2022-07-23T13:04:03;1.90;;;1.50;;
39276;SDS011;24981;48.086;-1.686;2022-07-23T13:06:33;3.55;;;1.60;;
39276;SDS011;24981;48.086;-1.686;2022-07-23T13:09:02;2.63;;;1.50;;
39276;SDS011;24981;48.086;-1.686;2022-07-23T13:11:31;2.75;;;1.52;;
39276;SDS011;24981;48.086;-1.686;2022-07-23T13:13:59;3.78;;;2.13;;
39276;SDS011;24981;48.086;-1.686;2022-07-23T13:16:27;3.25;;;1.45;;
39276;SDS011;24981;48.086;-1.686;2022-07-23T13:18:57;2.45;;;1.60;;
39276;SDS011;24981;48.086;-1.686;2022-07-23T13:21:26;2.92;;;1.40;;
39276;SDS011;24981;48.086;-1.686;2022-07-23T13:23:54;3.85;;;1.58;;
39276;SDS011;24981;48.086;-1.686;2022-07-23T13:26:21;4.70;;;1.60;;
39276;SDS011;24981;48.086;-1.686;2022-07-23T13:28:48;4.90;;;1.65;;
39276;SDS011;24981;48.086;-1.686;2022-07-23T13:31:16;2.25;;;1.48;;
39276;SDS011;24981;48.086;-1.686;2022-07-23T13:33:44;2.97;;;1.63;;
39276;SDS011;24981;48.086;-1.686;2022-07-23T13:36:13;3.90;;;1.38;;
39276;SDS011;24981;48.086;-1.686;2022-07-23T13:38:40;5.20;;;1.70;;
39276;SDS011;24981;48.086;-1.686;2022-07-23T13:41:08;2.63;;;1.45;;
39276;SDS011;24981;48.086;-1.686;2022-07-23T13:43:35;2.90;;;1.40;;
39276;SDS011;24981;48.086;-1.686;2022-07-23T13:46:03;1.60;;;1.50;;
39276;SDS011;24981;48.086;-1.686;2022-07-23T13:48:30;2.15;;;1.90;;
39276;SDS011;24981;48.086;-1.686;2022-07-23T13:50:58;2.28;;;1.75;;
39276;SDS011;24981;48.086;-1.686;2022-07-23T13:53:26;7.45;;;2.00;;
39276;SDS011;24981;48.086;-1.686;2022-07-23T13:55:54;4.13;;;2.15;;
39276;SDS011;24981;48.086;-1.686;2022-07-23T13:58:23;4.10;;;1.80;;
39276;SDS011;24981;48.086;-1.686;2022-07-23T14:00:50;2.08;;;1.80;;
39276;SDS011;24981;48.086;-1.686;2022-07-23T14:03:19;2.40;;;2.20;;
39276;SDS011;24981;48.086;-1.686;2022-07-23T14:05:49;4.10;;;1.90;;
39276;SDS011;24981;48.086;-1.686;2022-07-23T14:08:17;2.95;;;2.00;;
39276;SDS011;24981;48.086;-1.686;2022-07-23T14:10:45;2.28;;;2.15;;
39276;SDS011;24981;48.086;-1.686;2022-07-23T14:13:13;5.25;;;1.90;;
39276;SDS011;24981;48.086;-1.686;2022-07-23T14:15:40;2.15;;;1.83;;
39276;SDS011;24981;48.086;-1.686;2022-07-23T14:18:07;2.58;;;2.10;;
39276;SDS011;24981;48.086;-1.686;2022-07-23T14:20:35;2.35;;;1.90;;
39276;SDS011;24981;48.086;-1.686;2022-07-23T14:23:02;2.38;;;2.17;;
39276;SDS011;24981;48.086;-1.686;2022-07-23T14:25:29;2.45;;;2.15;;
39276;SDS011;24981;48.086;-1.686;2022-07-23T14:27:58;2.13;;;2.03;;
39276;SDS011;24981;48.086;-1.686;2022-07-23T14:30:25;2.38;;;2.22;;
39276;SDS011;24981;48.086;-1.686;2022-07-23T14:32:53;2.65;;;2.45;;
39276;SDS011;24981;48.086;-1.686;2022-07-23T14:35:20;2.13;;;2.03;;
39276;SDS011;24981;48.086;-1.686;2022-07-23T14:37:49;2.00;;;1.80;;
39276;SDS011;24981;48.086;-1.686;2022-07-23T14:40:17;4.32;;;2.35;;
39276;SDS011;24981;48.086;-1.686;2022-07-23T14:42:44;2.58;;;2.17;;
39276;SDS011;24981;48.086;-1.686;2022-07-23T14:45:13;2.58;;;2.38;;
39276;SDS011;24981;48.086;-1.686;2022-07-23T14:47:40;3.15;;;2.08;;
39276;SDS011;24981;48.086;-1.686;2022-07-23T14:50:08;2.33;;;2.22;;
39276;SDS011;24981;48.086;-1.686;2022-07-23T14:52:35;2.05;;;1.95;;
39276;SDS011;24981;48.086;-1.686;2022-07-23T14:55:03;2.20;;;2.10;;
39276;SDS011;24981;48.086;-1.686;2022-07-23T14:57:31;3.45;;;2.10;;
39276;SDS011;24981;48.086;-1.686;2022-07-23T14:59:59;3.03;;;2.53;;
39276;SDS011;24981;48.086;-1.686;2022-07-23T15:02:28;2.90;;;2.70;;
39276;SDS011;24981;48.086;-1.686;2022-07-23T15:04:55;2.80;;;2.65;;
39276;SDS011;24981;48.086;-1.686;2022-07-23T15:07:26;3.60;;;2.70;;
39276;SDS011;24981;48.086;-1.686;2022-07-23T15:09:54;3.40;;;3.20;;
39276;SDS011;24981;48.086;-1.686;2022-07-23T15:12:21;3.25;;;3.05;;
39276;SDS011;24981;48.086;-1.686;2022-07-23T15:14:49;3.20;;;3.00;;
39276;SDS011;24981;48.086;-1.686;2022-07-23T15:17:16;3.33;;;3.22;;